createdAt,value
2023-02-15T00:00:12.234Z,10.4
2023-02-15T00:05:13.552Z,10.6
2023-02-15T00:10:10.901Z,10.7
2023-02-15T00:15:12.110Z,10.7
2023-02-15T00:20:09.309Z,10.8
2023-02-15T00:25:08.555Z,11.3
2023-02-15T00:30:07.927Z,9.5
2023-02-15T00:35:07.080Z,13.3
2023-02-15T00:40:06.291Z,10.0
2023-02-15T00:45:05.630Z,8.9
2023-02-15T00:50:04.779Z,10.1
2023-02-15T00:55:03.975Z,8.7
2023-02-15T01:00:03.194Z,11.8
2023-02-15T01:05:02.473Z,10.9
2023-02-15T01:10:01.638Z,5.5
2023-02-15T01:15:00.873Z,10.5
2023-02-15T01:20:00.106Z,8.9
2023-02-15T01:24:59.479Z,6.9
2023-02-15T01:30:00.749Z,7.8
2023-02-15T01:34:57.831Z,8.7
2023-02-15T01:39:57.021Z,11.5
2023-02-15T01:44:56.341Z,11.5
2023-02-15T01:49:55.462Z,10.1
2023-02-15T01:54:54.722Z,8.1
2023-02-15T01:59:53.908Z,6.6
2023-02-15T02:04:53.285Z,5.7
2023-02-15T02:09:52.321Z,5.7
2023-02-15T02:14:53.566Z,9.0
2023-02-15T02:19:50.728Z,6.9
2023-02-15T02:24:49.990Z,9.3
2023-02-15T02:29:49.198Z,5.7
2023-02-15T02:34:49.475Z,9.9
2023-02-15T02:39:47.460Z,9.3
2023-02-15T02:44:46.657Z,8.7
2023-02-15T02:49:45.801Z,10.2
2023-02-15T02:54:45.194Z,12.9
2023-02-15T02:59:44.171Z,12.9
2023-02-15T03:04:43.397Z,10.7
2023-02-15T03:09:42.536Z,8.3
2023-02-15T03:14:41.712Z,7.7
2023-02-15T03:19:42.951Z,7.7
2023-02-15T03:29:39.241Z,7.7
2023-02-15T03:34:38.347Z,7.7
2023-02-15T03:39:37.670Z,5.7
2023-02-15T03:44:36.767Z,6.3
2023-02-15T03:49:36.079Z,15.4
2023-02-15T03:54:35.164Z,4.4
2023-02-15T03:59:34.337Z,7.0
2023-02-15T04:04:33.501Z,4.7
2023-02-15T04:09:32.703Z,6.4
2023-02-15T04:19:33.161Z,6.2
2023-02-15T04:24:30.204Z,7.6
2023-02-15T04:29:29.425Z,6.8
2023-02-15T04:34:28.702Z,6.8
2023-02-15T04:39:27.865Z,9.9
2023-02-15T04:44:27.028Z,5.7
2023-02-15T04:49:26.231Z,7.6
2023-02-15T04:54:25.345Z,7.6
2023-02-15T04:59:24.434Z,5.4
2023-02-15T05:04:23.688Z,6.6
2023-02-15T05:09:22.840Z,7.8
2023-02-15T05:14:21.927Z,9.8
2023-02-15T05:19:21.062Z,8.3
2023-02-15T05:24:20.176Z,10.5
2023-02-15T05:29:19.326Z,7.8
2023-02-15T05:39:17.666Z,10.5
2023-02-15T05:44:19.176Z,7.3
2023-02-15T05:49:17.949Z,6.1
2023-02-15T05:54:15.126Z,6.1
2023-02-15T06:04:13.430Z,5.6
2023-02-15T06:09:12.576Z,7.3
2023-02-15T06:14:11.729Z,4.8
2023-02-15T06:24:10.069Z,9.8
2023-02-15T06:29:09.155Z,16.3
2023-02-15T06:34:08.282Z,18.7
2023-02-15T06:39:07.418Z,13.5
2023-02-15T06:44:06.905Z,11.4
2023-02-15T06:49:05.765Z,6.3
2023-02-15T06:54:05.047Z,9.5
2023-02-15T06:59:04.115Z,12.0
2023-02-15T07:04:03.312Z,12.0
2023-02-15T07:09:02.424Z,5.2
2023-02-15T07:14:01.807Z,13.8
2023-02-15T07:19:00.777Z,4.2
2023-02-15T07:23:59.999Z,4.9
2023-02-15T07:28:59.134Z,5.6
2023-02-15T07:33:58.243Z,4.1
2023-02-15T07:38:57.389Z,6.5
2023-02-15T07:43:56.543Z,8.6
2023-02-15T07:48:55.742Z,8.8
2023-02-15T07:53:54.940Z,10.3
2023-02-15T07:58:54.155Z,9.7
2023-02-15T08:03:54.169Z,7.9
2023-02-15T08:08:52.676Z,4.5
2023-02-15T08:13:54.242Z,12.7
2023-02-15T08:18:51.209Z,10.0
2023-02-15T08:23:52.559Z,12.1
2023-02-15T08:28:49.845Z,9.0
2023-02-15T08:33:49.240Z,9.4
2023-02-15T08:38:48.553Z,7.7
2023-02-15T08:48:47.309Z,8.5
2023-02-15T08:53:46.779Z,6.0
2023-02-15T09:08:46.822Z,6.3
2023-02-15T09:13:44.165Z,10.7
2023-02-15T09:18:44.188Z,15.3
2023-02-15T09:28:23.550Z,10.5
2023-02-15T09:28:24.389Z,10.5
2023-02-15T09:28:25.305Z,10.5
2023-02-15T09:28:42.245Z,13.9
2023-02-15T09:33:41.636Z,9.2
2023-02-15T09:38:41.087Z,15.8
2023-02-15T09:43:40.586Z,10.0
2023-02-15T09:48:40.049Z,10.3
2023-02-15T09:53:39.653Z,10.3
2023-02-15T09:58:39.130Z,8.9
2023-02-15T10:03:38.761Z,14.8
2023-02-15T10:08:38.220Z,18.9
2023-02-15T10:13:37.808Z,11.4
2023-02-15T10:18:37.338Z,11.5
2023-02-15T10:23:36.936Z,17.0
2023-02-15T10:28:36.500Z,11.3
2023-02-15T10:33:36.149Z,8.3
2023-02-15T10:38:35.763Z,9.8
2023-02-15T10:43:35.384Z,10.8
2023-02-15T10:48:35.010Z,10.5
2023-02-15T10:53:34.677Z,10.5
2023-02-15T10:58:34.339Z,11.8
2023-02-15T11:03:34.071Z,15.7
2023-02-15T11:08:33.669Z,17.9
2023-02-15T11:13:33.407Z,12.1
2023-02-15T11:18:33.080Z,12.1
2023-02-15T11:23:32.850Z,13.7
2023-02-15T11:33:32.307Z,12.5
2023-02-15T11:38:32.068Z,13.0
2023-02-15T11:43:31.843Z,12.1
2023-02-15T11:48:31.755Z,10.1
2023-02-15T11:53:31.404Z,11.5
2023-02-15T11:58:31.162Z,13.8
2023-02-15T12:08:30.764Z,12.2
2023-02-15T12:13:30.591Z,12.2
2023-02-15T12:18:30.471Z,19.0
2023-02-15T12:23:30.292Z,10.3
2023-02-15T12:28:32.756Z,13.0
2023-02-15T12:33:30.069Z,12.3
2023-02-15T12:38:30.007Z,12.3
2023-02-15T12:43:29.875Z,11.6
2023-02-15T12:48:31.795Z,13.9
2023-02-15T12:53:29.770Z,9.6
2023-02-15T13:03:29.598Z,9.8
2023-02-15T13:08:29.490Z,7.9
2023-02-15T13:13:29.488Z,10.2
2023-02-15T13:18:29.375Z,9.2
2023-02-15T13:23:29.418Z,8.6
2023-02-15T13:28:29.300Z,9.7
2023-02-15T13:33:29.312Z,9.0
2023-02-15T13:38:29.317Z,16.3
2023-02-15T13:43:29.296Z,12.1
2023-02-15T13:48:40.149Z,10.7
2023-02-15T13:53:29.302Z,9.6
2023-02-15T13:58:29.359Z,8.5
2023-02-15T14:08:29.430Z,7.9
2023-02-15T14:13:29.483Z,10.0
2023-02-15T14:18:29.527Z,8.7
2023-02-15T14:23:29.548Z,7.9
2023-02-15T14:28:29.464Z,12.9
2023-02-15T14:33:32.574Z,12.9
2023-02-15T14:38:29.388Z,14.1
2023-02-15T14:48:29.268Z,7.4
2023-02-15T14:53:29.638Z,10.0
2023-02-15T14:58:29.174Z,6.5
2023-02-15T15:03:29.001Z,8.9
2023-02-15T15:08:28.858Z,7.3
2023-02-15T15:13:30.694Z,5.4
2023-02-15T15:18:28.487Z,9.3
2023-02-15T15:23:28.275Z,9.6
2023-02-15T15:28:28.193Z,7.7
2023-02-15T15:33:27.959Z,8.8
2023-02-15T15:38:27.826Z,5.9
2023-02-15T15:43:27.598Z,9.7
2023-02-15T15:48:27.485Z,6.9
2023-02-15T15:53:27.290Z,11.0
2023-02-15T15:58:27.063Z,13.2
2023-02-15T16:03:28.870Z,11.3
2023-02-15T16:08:26.633Z,5.2
2023-02-15T16:13:26.389Z,5.2
2023-02-15T16:18:26.327Z,7.5
2023-02-15T16:23:25.898Z,7.4
2023-02-15T16:28:25.688Z,6.2
2023-02-15T16:33:25.424Z,7.6
2023-02-15T16:38:25.202Z,9.5
2023-02-15T16:43:24.909Z,10.1
2023-02-15T16:48:24.635Z,2.0
2023-02-15T16:53:24.401Z,3.2
2023-02-15T16:58:24.203Z,1.8
2023-02-15T17:03:23.841Z,1.1
2023-02-15T17:08:23.485Z,1.6
2023-02-15T17:13:23.081Z,0.8
2023-02-15T17:18:22.790Z,2.1
2023-02-15T17:23:22.344Z,2.1
2023-02-15T17:38:21.257Z,1.1
2023-02-15T17:43:20.852Z,2.0
2023-02-15T17:48:20.486Z,2.0
2023-02-15T17:53:20.072Z,2.8
2023-02-15T17:58:19.724Z,1.9
2023-02-15T18:03:19.243Z,1.3
2023-02-15T18:08:18.909Z,1.4
2023-02-15T18:13:18.531Z,0.9
2023-02-15T18:18:18.110Z,1.6
2023-02-15T18:23:17.612Z,2.5
2023-02-15T18:28:17.177Z,1.4
2023-02-15T18:33:17.757Z,1.3
2023-02-15T18:38:18.680Z,1.3
2023-02-15T18:43:15.858Z,1.7
2023-02-15T18:48:15.462Z,4.0
2023-02-15T18:53:14.986Z,2.2
2023-02-15T18:58:14.736Z,2.0
2023-02-15T19:03:16.222Z,4.6
2023-02-15T19:08:13.755Z,1.8
2023-02-15T19:13:13.249Z,1.9
2023-02-15T19:18:12.795Z,3.5
2023-02-15T19:23:12.352Z,3.2
2023-02-15T19:28:13.891Z,2.1
2023-02-15T19:33:11.467Z,2.5
2023-02-15T19:43:10.572Z,4.7
2023-02-15T19:48:10.084Z,2.1
2023-02-15T19:53:09.671Z,2.9
2023-02-15T20:03:08.695Z,2.1
2023-02-15T20:08:08.140Z,3.5
2023-02-15T20:18:07.243Z,3.2
2023-02-15T20:23:06.541Z,3.8
2023-02-15T20:28:06.125Z,7.0
2023-02-15T20:33:05.535Z,3.5
2023-02-15T20:38:05.144Z,3.4
2023-02-15T20:43:05.105Z,2.0
2023-02-15T20:48:04.014Z,3.3
2023-02-15T20:58:02.984Z,1.7
2023-02-15T21:03:02.388Z,5.3
2023-02-15T21:08:01.885Z,2.7
2023-02-15T21:13:01.439Z,2.2
2023-02-15T21:18:00.725Z,3.3
2023-02-15T21:23:01.952Z,1.6
2023-02-15T21:27:59.817Z,2.7
2023-02-15T21:32:59.114Z,1.7
2023-02-15T21:37:59.165Z,1.7
2023-02-15T21:42:57.964Z,1.6
2023-02-15T21:47:57.483Z,1.7
2023-02-15T21:52:56.941Z,3.2
2023-02-15T21:57:58.910Z,3.2
2023-02-15T22:02:55.860Z,1.6
2023-02-15T22:07:55.311Z,1.6
2023-02-15T22:17:54.210Z,3.9
2023-02-15T22:22:53.608Z,3.9
2023-02-15T22:27:53.129Z,1.7
2023-02-15T22:32:52.493Z,1.1
2023-02-15T22:37:51.963Z,1.5
2023-02-15T22:42:53.363Z,1.2
2023-02-15T22:47:50.753Z,1.7
2023-02-15T22:52:50.113Z,4.4
2023-02-15T22:57:51.540Z,1.6
2023-02-15T23:02:48.953Z,1.6
2023-02-15T23:07:48.427Z,1.2
2023-02-15T23:12:47.773Z,1.9
2023-02-15T23:17:47.173Z,2.4
2023-02-15T23:22:47.235Z,2.5
2023-02-15T23:27:46.086Z,2.5
2023-02-15T23:32:45.624Z,6.3
2023-02-15T23:37:47.517Z,1.8
2023-02-15T23:42:44.397Z,2.0
2023-02-15T23:47:43.820Z,2.3
2023-02-15T23:52:43.220Z,2.7
2023-02-15T23:57:42.626Z,1.3
